Time;durP1;ratioP1;P1;durP2;ratioP2;P2;SDS_P1;SDS_P2;PMS_P1;PMS_P2;Temp;Humidity;BMP_temperature;BMP_pressure;BME280_temperature;BME280_humidity;BME280_pressure;Samples;Min_cycle;Max_cycle;Signal;HPM_P1;HPM_P2
2023/07/03 00:01:27;;;;;;;14.40;10.10;;;17.90;61.90;;;;;;5027165;28;20524;-63
2023/07/03 00:03:52;;;;;;;15.30;10.32;;;17.80;62.00;;;;;;5030586;28;20041;-62
2023/07/03 00:06:18;;;;;;;16.75;10.35;;;17.80;62.00;;;;;;5031814;28;20044;-63
2023/07/03 00:08:43;;;;;;;16.13;10.50;;;17.80;62.20;;;;;;5028085;28;20634;-62
2023/07/03 00:11:09;;;;;;;17.65;10.52;;;17.70;62.40;;;;;;5028655;28;20041;-62
2023/07/03 00:13:34;;;;;;;15.23;10.15;;;17.70;62.40;;;;;;5027263;28;20666;-63
2023/07/03 00:16:01;;;;;;;16.75;9.88;;;17.60;62.40;;;;;;5031558;28;20055;-64
2023/07/03 00:18:28;;;;;;;16.30;10.13;;;17.60;62.60;;;;;;5031997;28;20030;-60
2023/07/03 00:20:55;;;;;;;19.38;11.43;;;17.50;62.90;;;;;;5032613;28;20318;-63
2023/07/03 00:23:22;;;;;;;15.32;9.90;;;17.50;63.20;;;;;;5029701;28;20452;-63
2023/07/03 00:25:48;;;;;;;19.20;10.85;;;17.50;63.40;;;;;;5029559;28;20575;-63
2023/07/03 00:28:14;;;;;;;18.67;10.95;;;17.50;63.60;;;;;;5030984;28;20048;-63
2023/07/03 00:30:40;;;;;;;15.63;10.77;;;17.50;63.40;;;;;;5028727;28;20037;-63
2023/07/03 00:33:05;;;;;;;14.30;10.23;;;17.50;63.30;;;;;;5030110;28;20037;-63
2023/07/03 00:35:31;;;;;;;18.55;11.38;;;17.50;63.40;;;;;;5033605;28;20037;-63
2023/07/03 00:37:56;;;;;;;15.30;10.55;;;17.50;63.30;;;;;;5031492;28;20029;-63
2023/07/03 00:40:22;;;;;;;16.55;11.05;;;17.50;63.20;;;;;;5026803;28;20040;-63
2023/07/03 00:42:51;;;;;;;19.10;11.27;;;17.50;63.40;;;;;;5025811;28;20036;-63
2023/07/03 00:45:17;;;;;;;16.30;10.70;;;17.50;63.40;;;;;;5028135;28;20042;-63
2023/07/03 00:47:42;;;;;;;18.75;11.60;;;17.50;63.60;;;;;;5029017;28;20408;-63
2023/07/03 00:50:09;;;;;;;17.58;11.63;;;17.50;63.80;;;;;;5030070;28;20040;-63
2023/07/03 00:52:35;;;;;;;16.75;11.02;;;17.40;63.80;;;;;;5031183;28;20088;-63
2023/07/03 00:55:01;;;;;;;18.30;10.85;;;17.50;64.10;;;;;;5031428;28;20516;-62
2023/07/03 00:57:28;;;;;;;14.43;9.80;;;17.40;64.00;;;;;;5031419;28;20034;-63
2023/07/03 00:59:54;;;;;;;18.25;11.60;;;17.40;64.10;;;;;;5028537;28;20040;-63
2023/07/03 01:02:34;;;;;;;16.17;11.25;;;17.50;64.20;;;;;;5020932;28;20083;-63
2023/07/03 01:05:03;;;;;;;18.88;11.30;;;17.50;64.70;;;;;;5028224;28;20052;-63
2023/07/03 01:07:32;;;;;;;17.75;11.43;;;17.50;64.10;;;;;;5029052;28;20041;-63
2023/07/03 01:10:10;;;;;;;17.98;11.50;;;17.60;64.10;;;;;;5029182;28;20119;-62
2023/07/03 01:12:40;;;;;;;17.58;11.02;;;17.60;64.10;;;;;;5024754;28;20029;-62
2023/07/03 01:15:09;;;;;;;15.45;10.45;;;17.60;64.30;;;;;;5028605;28;20060;-63
2023/07/03 01:17:37;;;;;;;14.70;10.50;;;17.60;64.40;;;;;;5031144;28;20728;-63
2023/07/03 01:20:04;;;;;;;18.13;10.85;;;17.60;64.30;;;;;;5027643;28;20046;-63
2023/07/03 01:22:44;;;;;;;15.93;10.90;;;17.70;64.30;;;;;;5027377;28;20033;-63
2023/07/03 01:25:15;;;;;;;15.43;10.68;;;17.70;65.00;;;;;;5030729;28;20037;-62
2023/07/03 01:27:43;;;;;;;17.85;10.55;;;17.80;64.60;;;;;;5034105;28;20556;-63
2023/07/03 01:30:13;;;;;;;15.00;9.90;;;17.80;64.60;;;;;;5031816;28;20045;-63
2023/07/03 01:32:39;;;;;;;13.52;10.15;;;17.90;64.40;;;;;;5027081;28;20262;-63
2023/07/03 01:35:08;;;;;;;16.75;10.70;;;18.00;64.50;;;;;;5029824;28;20116;-63
2023/07/03 01:37:37;;;;;;;14.93;10.05;;;18.00;64.30;;;;;;5027903;28;20040;-63
2023/07/03 01:40:03;;;;;;;13.77;9.95;;;18.00;64.00;;;;;;5027721;28;20517;-62
2023/07/03 01:42:31;;;;;;;14.02;9.88;;;18.00;64.10;;;;;;5024625;28;20033;-63
2023/07/03 01:44:56;;;;;;;13.52;9.73;;;18.00;64.50;;;;;;5027384;28;20465;-62
2023/07/03 01:47:22;;;;;;;17.33;10.20;;;18.10;64.50;;;;;;5027364;28;20422;-63
2023/07/03 01:49:48;;;;;;;15.10;10.05;;;18.00;64.50;;;;;;5027891;28;20061;-63
2023/07/03 01:52:23;;;;;;;14.93;9.93;;;18.10;64.50;;;;;;5029930;28;20037;-63
2023/07/03 01:55:02;;;;;;;;;;;18.20;64.80;;;;;;5028139;28;20095;-63
2023/07/03 01:58:08;;;;;;;15.02;9.25;;;18.20;64.40;;;;;;5029959;28;20285;-63
2023/07/03 02:00:56;;;;;;;16.88;9.73;;;18.30;65.10;;;;;;5024426;28;20060;-62
2023/07/03 02:03:30;;;;;;;13.20;9.50;;;18.40;65.10;;;;;;5030363;28;20150;-63
2023/07/03 02:05:58;;;;;;;16.55;10.10;;;18.30;64.30;;;;;;5029384;28;20037;-62
2023/07/03 02:08:25;;;;;;;12.95;8.50;;;18.40;65.20;;;;;;5028027;28;20127;-63
2023/07/03 02:10:52;;;;;;;15.23;9.85;;;18.40;64.30;;;;;;5021461;28;20045;-62
2023/07/03 02:13:18;;;;;;;13.48;9.13;;;18.40;64.20;;;;;;5027892;28;20128;-63
2023/07/03 02:15:44;;;;;;;14.27;9.82;;;18.40;64.10;;;;;;5026627;28;20041;-60
2023/07/03 02:18:17;;;;;;;14.05;8.90;;;18.40;64.00;;;;;;5028724;28;20121;-63
2023/07/03 02:20:46;;;;;;;14.30;9.23;;;18.40;64.20;;;;;;5032895;28;20037;-63
2023/07/03 02:23:12;;;;;;;14.77;9.02;;;18.40;64.30;;;;;;5023089;28;20037;-63
2023/07/03 02:25:37;;;;;;;14.35;9.27;;;18.40;64.20;;;;;;5030843;28;20076;-62
2023/07/03 02:28:04;;;;;;;12.52;8.80;;;18.40;64.10;;;;;;5031761;28;20039;-62
2023/07/03 02:30:30;;;;;;;13.23;9.25;;;18.40;64.00;;;;;;5023696;28;20037;-63
2023/07/03 02:32:55;;;;;;;15.55;9.75;;;18.40;63.80;;;;;;5027786;28;20041;-62
2023/07/03 02:35:21;;;;;;;12.95;9.20;;;18.40;63.80;;;;;;5029832;28;21760;-63
2023/07/03 02:37:47;;;;;;;13.63;9.20;;;18.40;63.90;;;;;;5029503;28;20036;-63
2023/07/03 02:40:13;;;;;;;13.75;9.70;;;18.50;64.10;;;;;;5028919;28;20135;-63
2023/07/03 02:42:39;;;;;;;15.65;9.68;;;18.50;64.10;;;;;;5024397;28;21052;-62
2023/07/03 02:45:06;;;;;;;15.77;9.57;;;18.60;64.00;;;;;;5029592;28;20061;-63
2023/07/03 02:47:36;;;;;;;13.30;9.18;;;18.60;64.10;;;;;;5025545;28;20032;-63
2023/07/03 02:50:03;;;;;;;12.75;9.20;;;18.50;64.50;;;;;;5025851;28;20400;-62
2023/07/03 02:52:29;;;;;;;13.60;9.00;;;18.50;64.30;;;;;;5025607;28;20489;-61
2023/07/03 02:54:55;;;;;;;13.43;8.93;;;18.60;64.10;;;;;;5030380;28;20158;-62
2023/07/03 02:57:20;;;;;;;13.68;8.60;;;18.60;64.10;;;;;;5026838;28;20053;-63
2023/07/03 02:59:46;;;;;;;14.88;8.88;;;18.60;64.00;;;;;;5031700;28;20765;-62
2023/07/03 03:02:11;;;;;;;14.85;9.10;;;18.60;64.00;;;;;;5028629;28;20088;-62
2023/07/03 03:04:37;;;;;;;12.82;9.00;;;18.60;63.80;;;;;;5030385;28;20042;-63
2023/07/03 03:07:03;;;;;;;14.07;9.13;;;18.60;63.80;;;;;;5026814;28;20116;-61
2023/07/03 03:09:28;;;;;;;12.10;8.48;;;18.60;64.00;;;;;;5029429;28;20049;-63
2023/07/03 03:11:54;;;;;;;13.20;9.02;;;18.60;63.90;;;;;;5030168;28;20053;-63
2023/07/03 03:14:19;;;;;;;13.30;8.93;;;18.60;64.10;;;;;;5028091;28;20037;-63
2023/07/03 03:16:45;;;;;;;14.63;9.25;;;18.70;65.00;;;;;;5026830;28;20590;-63
2023/07/03 03:19:10;;;;;;;13.60;9.32;;;18.70;64.00;;;;;;5024335;28;20048;-63
2023/07/03 03:21:38;;;;;;;16.58;9.40;;;18.70;63.90;;;;;;5025716;28;20408;-62
2023/07/03 03:24:03;;;;;;;13.15;9.07;;;18.70;63.90;;;;;;5030104;28;20292;-62
2023/07/03 03:26:29;;;;;;;13.65;9.07;;;18.70;64.70;;;;;;5029502;28;20408;-63
2023/07/03 03:28:55;;;;;;;16.73;10.00;;;18.80;64.00;;;;;;5033814;28;20111;-63
2023/07/03 03:31:20;;;;;;;14.10;9.60;;;18.70;63.80;;;;;;5026287;28;20041;-63
2023/07/03 03:33:46;;;;;;;12.75;9.25;;;18.70;63.70;;;;;;5024004;28;20346;-61
2023/07/03 03:36:11;;;;;;;13.88;9.32;;;18.80;63.80;;;;;;5026363;28;20417;-63
2023/07/03 03:38:37;;;;;;;15.10;9.48;;;18.80;63.90;;;;;;5022893;28;20046;-63
2023/07/03 03:41:04;;;;;;;15.38;9.40;;;18.70;63.90;;;;;;5027529;28;20052;-63
2023/07/03 03:43:29;;;;;;;11.98;9.18;;;18.80;63.90;;;;;;5029675;28;20548;-62
2023/07/03 03:45:56;;;;;;;13.77;9.18;;;18.80;63.80;;;;;;5025293;28;20048;-64
2023/07/03 03:48:22;;;;;;;13.35;9.23;;;18.80;63.60;;;;;;5026364;28;20147;-62
2023/07/03 03:50:48;;;;;;;16.95;9.40;;;18.80;63.60;;;;;;5024137;28;20045;-62
2023/07/03 03:53:13;;;;;;;16.60;9.70;;;18.80;63.60;;;;;;5026335;28;20060;-63
2023/07/03 03:55:39;;;;;;;13.07;9.40;;;18.80;63.40;;;;;;5027990;28;20041;-63
2023/07/03 03:58:04;;;;;;;13.23;9.23;;;18.80;63.60;;;;;;5033450;28;20045;-63
2023/07/03 04:00:30;;;;;;;13.60;9.35;;;18.80;63.60;;;;;;5029433;28;20034;-63
2023/07/03 04:02:56;;;;;;;13.73;9.13;;;18.80;63.60;;;;;;5027649;28;20672;-63
2023/07/03 04:05:22;;;;;;;15.00;9.88;;;18.80;63.90;;;;;;5028758;28;20025;-61
2023/07/03 04:07:47;;;;;;;13.45;8.90;;;18.80;63.80;;;;;;5030345;28;20033;-63
2023/07/03 04:10:13;;;;;;;14.88;9.27;;;18.90;63.80;;;;;;5023848;28;20037;-63
2023/07/03 04:12:38;;;;;;;14.70;9.43;;;18.90;63.70;;;;;;5028349;28;20091;-62
2023/07/03 04:15:05;;;;;;;14.77;9.20;;;18.90;63.80;;;;;;5029451;28;20041;-63
2023/07/03 04:17:31;;;;;;;14.93;9.77;;;18.90;64.00;;;;;;5030579;28;20405;-62
2023/07/03 04:19:56;;;;;;;15.77;9.32;;;18.90;63.80;;;;;;5033090;28;20033;-62
2023/07/03 04:22:22;;;;;;;15.85;9.60;;;18.90;63.50;;;;;;5029388;28;20139;-63
2023/07/03 04:24:48;;;;;;;13.63;9.35;;;18.90;63.40;;;;;;5030658;28;20038;-63
2023/07/03 04:27:14;;;;;;;11.70;8.70;;;18.90;63.30;;;;;;5029195;28;20050;-62
2023/07/03 04:29:41;;;;;;;14.90;8.57;;;19.00;63.30;;;;;;5031115;28;20041;-64
2023/07/03 04:32:07;;;;;;;14.25;8.75;;;18.90;63.30;;;;;;5032533;28;20087;-63
2023/07/03 04:34:32;;;;;;;12.25;8.63;;;19.00;63.30;;;;;;5034164;28;20461;-63
2023/07/03 04:36:58;;;;;;;14.57;8.68;;;18.90;63.40;;;;;;5036610;28;20088;-63
2023/07/03 04:39:24;;;;;;;14.93;8.95;;;18.90;63.40;;;;;;5036315;28;20065;-63
2023/07/03 04:41:49;;;;;;;12.63;8.57;;;18.90;63.50;;;;;;5035193;28;20037;-63
2023/07/03 04:44:15;;;;;;;13.45;8.90;;;18.90;63.60;;;;;;5033660;28;20115;-63
2023/07/03 04:46:43;;;;;;;15.50;8.50;;;18.90;63.60;;;;;;5034159;28;20047;-63
2023/07/03 04:49:10;;;;;;;16.00;8.45;;;18.90;63.70;;;;;;5034597;28;20036;-62
2023/07/03 04:51:36;;;;;;;12.00;8.43;;;18.90;63.90;;;;;;5035152;28;20555;-61
2023/07/03 04:54:03;;;;;;;16.10;8.73;;;19.00;63.60;;;;;;5034111;28;20072;-63
2023/07/03 04:56:32;;;;;;;16.08;8.95;;;19.00;63.20;;;;;;5034915;28;20048;-63
2023/07/03 04:58:57;;;;;;;17.08;9.13;;;19.00;63.30;;;;;;5034824;28;20053;-63
2023/07/03 05:01:24;;;;;;;17.63;9.20;;;19.00;63.10;;;;;;5035119;28;20435;-63
2023/07/03 05:03:49;;;;;;;15.35;8.73;;;19.00;62.60;;;;;;5034673;28;20021;-63
2023/07/03 05:06:15;;;;;;;12.98;8.02;;;19.00;62.90;;;;;;5034003;28;20044;-64
2023/07/03 05:08:41;;;;;;;16.13;7.93;;;19.00;62.40;;;;;;5033725;28;20329;-63
2023/07/03 05:11:06;;;;;;;11.90;7.80;;;18.90;62.30;;;;;;5031528;28;20064;-63
2023/07/03 05:13:32;;;;;;;13.15;8.02;;;19.00;62.70;;;;;;5035934;28;20067;-63
2023/07/03 05:15:57;;;;;;;14.82;8.30;;;18.90;62.90;;;;;;5032789;28;20166;-63
2023/07/03 05:18:23;;;;;;;12.25;7.57;;;19.00;62.90;;;;;;5036168;28;20482;-63
2023/07/03 05:20:49;;;;;;;13.23;8.02;;;19.00;62.90;;;;;;5032731;28;20041;-63
2023/07/03 05:23:15;;;;;;;12.82;8.05;;;19.00;62.80;;;;;;5034641;28;20037;-63
2023/07/03 05:25:42;;;;;;;12.60;7.65;;;19.00;62.70;;;;;;5035837;28;20037;-63
2023/07/03 05:28:07;;;;;;;12.00;7.93;;;19.00;62.60;;;;;;5037153;28;20073;-63
2023/07/03 05:30:33;;;;;;;16.08;8.30;;;19.10;62.60;;;;;;5034601;28;20488;-63
2023/07/03 05:32:58;;;;;;;14.82;8.13;;;19.10;62.30;;;;;;5033513;28;20043;-63
2023/07/03 05:35:25;;;;;;;13.00;7.47;;;19.20;62.40;;;;;;5034317;28;20029;-63
2023/07/03 05:37:50;;;;;;;10.45;7.07;;;19.20;62.20;;;;;;5035970;28;20079;-62
2023/07/03 05:40:16;;;;;;;15.50;7.55;;;19.20;62.30;;;;;;5034413;28;20069;-63
2023/07/03 05:42:42;;;;;;;11.38;7.07;;;19.20;62.00;;;;;;5033545;28;20037;-63
2023/07/03 05:45:09;;;;;;;13.80;7.65;;;19.30;62.00;;;;;;5034716;28;20053;-63
2023/07/03 05:47:35;;;;;;;12.30;7.95;;;19.30;61.90;;;;;;5034632;28;20535;-63
2023/07/03 05:50:01;;;;;;;14.18;7.90;;;19.40;61.80;;;;;;5034102;28;20144;-63
2023/07/03 05:52:27;;;;;;;12.02;7.32;;;19.40;61.60;;;;;;5033651;28;20033;-62
2023/07/03 05:54:53;;;;;;;11.68;7.43;;;19.40;61.50;;;;;;5034777;28;20037;-63
2023/07/03 05:57:20;;;;;;;12.15;7.82;;;19.50;61.60;;;;;;5033201;28;20405;-63
2023/07/03 05:59:47;;;;;;;14.07;7.63;;;19.50;61.50;;;;;;5034374;28;20037;-64
2023/07/03 06:02:14;;;;;;;11.48;7.35;;;19.50;61.50;;;;;;5035434;28;20115;-63
2023/07/03 06:04:39;;;;;;;10.18;7.40;;;19.60;61.60;;;;;;5031885;28;20056;-62
2023/07/03 06:07:06;;;;;;;16.55;7.60;;;19.60;61.50;;;;;;5032634;28;20432;-64
2023/07/03 06:09:33;;;;;;;13.30;7.90;;;19.70;61.30;;;;;;5034542;28;20524;-63
2023/07/03 06:11:59;;;;;;;15.38;7.75;;;19.70;61.20;;;;;;5032397;28;20521;-62
2023/07/03 06:14:25;;;;;;;13.93;7.85;;;19.70;61.10;;;;;;5034298;28;20108;-63
2023/07/03 06:16:52;;;;;;;13.18;7.70;;;19.70;61.20;;;;;;5031784;28;20152;-63
2023/07/03 06:19:19;;;;;;;14.02;7.28;;;19.70;61.00;;;;;;5032179;28;20392;-63
2023/07/03 06:21:45;;;;;;;13.02;7.57;;;19.80;61.10;;;;;;5032914;28;20041;-63
2023/07/03 06:24:12;;;;;;;12.40;6.78;;;19.80;61.10;;;;;;5035889;28;20029;-63
2023/07/03 06:26:39;;;;;;;13.52;6.97;;;19.90;61.10;;;;;;5031437;28;20032;-63
2023/07/03 06:29:06;;;;;;;15.32;7.43;;;19.90;61.00;;;;;;5033582;28;20088;-63
2023/07/03 06:31:32;;;;;;;13.35;7.30;;;19.90;60.80;;;;;;5031386;28;20049;-63
2023/07/03 06:33:58;;;;;;;10.15;6.47;;;19.90;60.80;;;;;;5033358;28;20866;-61
2023/07/03 06:36:25;;;;;;;10.48;6.55;;;20.00;61.00;;;;;;5033499;28;20321;-63
2023/07/03 06:38:55;;;;;;;12.18;7.32;;;20.00;60.90;;;;;;5031029;28;20244;-63
2023/07/03 06:41:22;;;;;;;13.40;7.32;;;20.00;61.00;;;;;;5033177;28;20065;-63
2023/07/03 06:43:48;;;;;;;11.95;6.93;;;20.10;61.10;;;;;;5033323;28;20087;-63
2023/07/03 06:46:14;;;;;;;12.23;6.55;;;20.10;61.00;;;;;;5031924;28;20600;-63
2023/07/03 06:48:41;;;;;;;12.18;6.88;;;20.10;61.00;;;;;;5032296;28;20037;-63
2023/07/03 06:51:08;;;;;;;12.05;6.75;;;20.10;61.20;;;;;;5033841;28;20055;-63
2023/07/03 06:53:34;;;;;;;11.48;6.68;;;20.10;61.00;;;;;;5033533;28;20041;-62
2023/07/03 06:56:01;;;;;;;11.77;6.22;;;20.20;61.10;;;;;;5033697;28;20037;-62
2023/07/03 06:58:27;;;;;;;10.27;6.07;;;20.20;61.00;;;;;;5032404;28;20530;-64
2023/07/03 07:00:53;;;;;;;9.20;5.78;;;20.20;61.00;;;;;;5033286;28;20034;-61
2023/07/03 07:03:19;;;;;;;10.27;6.15;;;20.30;61.00;;;;;;5031088;28;20524;-62
2023/07/03 07:05:45;;;;;;;9.52;6.05;;;20.30;61.10;;;;;;5030333;28;20083;-63
2023/07/03 07:08:16;;;;;;;12.68;6.13;;;20.30;61.10;;;;;;5033222;28;20037;-63
2023/07/03 07:10:43;;;;;;;10.35;6.07;;;20.40;61.10;;;;;;5028843;28;20042;-63
2023/07/03 07:13:09;;;;;;;10.70;6.25;;;20.40;61.00;;;;;;5033065;28;20036;-63
2023/07/03 07:15:39;;;;;;;10.20;6.47;;;20.50;61.00;;;;;;5029937;28;20029;-62
2023/07/03 07:18:06;;;;;;;10.35;6.20;;;20.50;60.90;;;;;;5031583;28;20041;-63
2023/07/03 07:20:41;;;;;;;10.85;5.55;;;20.50;60.80;;;;;;5031257;28;20029;-63
2023/07/03 07:23:08;;;;;;;10.38;6.03;;;20.60;60.50;;;;;;5032696;28;20048;-64
2023/07/03 07:25:34;;;;;;;10.23;5.57;;;20.70;60.80;;;;;;5034317;28;20603;-63
2023/07/03 07:28:00;;;;;;;8.45;6.07;;;20.70;61.50;;;;;;5035093;28;20091;-63
2023/07/03 07:30:26;;;;;;;10.00;5.45;;;20.80;60.50;;;;;;5036016;28;20517;-63
2023/07/03 07:32:51;;;;;;;10.35;5.72;;;20.80;60.40;;;;;;5032625;28;20053;-63
2023/07/03 07:35:17;;;;;;;11.57;5.82;;;20.80;60.10;;;;;;5038296;28;20053;-63
2023/07/03 07:37:43;;;;;;;6.85;5.10;;;20.90;60.00;;;;;;5036593;28;20037;-63
2023/07/03 07:40:10;;;;;;;11.40;5.53;;;20.90;60.10;;;;;;5036110;28;20095;-63
2023/07/03 07:42:36;;;;;;;10.95;5.68;;;21.00;60.10;;;;;;5035190;28;20037;-64
2023/07/03 07:45:03;;;;;;;9.48;5.68;;;21.00;59.90;;;;;;5035448;28;20033;-63
2023/07/03 07:47:29;;;;;;;9.50;5.72;;;21.10;59.50;;;;;;5035308;28;20037;-63
2023/07/03 07:49:55;;;;;;;9.10;5.25;;;21.20;59.10;;;;;;5037306;28;20401;-63
2023/07/03 07:52:23;;;;;;;13.65;5.85;;;21.20;58.90;;;;;;5036774;28;20035;-63
2023/07/03 07:54:54;;;;;;;11.07;5.70;;;21.30;58.80;;;;;;5036535;28;20044;-63
2023/07/03 07:57:19;;;;;;;12.00;5.47;;;21.30;58.70;;;;;;5036838;28;20037;-63
2023/07/03 07:59:45;;;;;;;9.75;5.18;;;21.40;58.70;;;;;;5033229;28;20389;-63
2023/07/03 08:02:10;;;;;;;13.13;5.50;;;21.40;58.50;;;;;;5033427;28;20112;-63
2023/07/03 08:04:36;;;;;;;9.98;5.50;;;21.50;58.30;;;;;;5035021;28;20049;-63
2023/07/03 08:07:01;;;;;;;10.18;5.95;;;21.60;58.40;;;;;;5035620;28;20075;-62
2023/07/03 08:09:27;;;;;;;11.25;5.45;;;21.70;57.70;;;;;;5035854;28;20094;-62
2023/07/03 08:11:52;;;;;;;7.43;5.18;;;21.80;57.50;;;;;;5032173;28;20037;-62
2023/07/03 08:14:18;;;;;;;11.02;5.95;;;21.90;57.70;;;;;;5036200;28;20125;-63
2023/07/03 08:16:43;;;;;;;9.18;5.50;;;21.90;57.20;;;;;;5034396;28;20456;-63
2023/07/03 08:19:09;;;;;;;12.35;5.50;;;22.00;56.90;;;;;;5039690;28;20041;-63
2023/07/03 08:21:35;;;;;;;9.00;5.22;;;22.10;57.10;;;;;;5035986;28;20117;-63
2023/07/03 08:24:00;;;;;;;8.05;5.22;;;22.20;56.80;;;;;;5035199;28;20033;-63
2023/07/03 08:26:26;;;;;;;11.05;5.60;;;22.30;56.40;;;;;;5038395;28;20056;-63
2023/07/03 08:28:51;;;;;;;16.02;5.70;;;22.40;55.90;;;;;;5037322;28;20508;-61
2023/07/03 08:31:17;;;;;;;9.18;5.65;;;22.40;55.70;;;;;;5038671;28;20157;-63
2023/07/03 08:33:43;;;;;;;9.10;5.22;;;22.50;55.50;;;;;;5037518;28;20037;-63
2023/07/03 08:36:08;;;;;;;9.57;5.35;;;22.50;55.50;;;;;;5038224;28;20396;-62
2023/07/03 08:38:34;;;;;;;8.63;5.43;;;22.50;55.30;;;;;;5038953;28;20044;-63
2023/07/03 08:41:01;;;;;;;9.05;5.35;;;22.60;55.10;;;;;;5038010;28;20033;-63
2023/07/03 08:43:38;;;;;;;13.88;5.60;;;22.60;54.70;;;;;;5038716;28;20052;-63
2023/07/03 08:46:08;;;;;;;9.15;5.53;;;22.70;54.30;;;;;;5038605;28;20025;-63
2023/07/03 08:48:35;;;;;;;10.35;5.80;;;22.70;54.70;;;;;;5035602;28;20509;-62
2023/07/03 08:51:03;;;;;;;8.95;5.07;;;22.70;54.40;;;;;;5033900;28;20124;-63
2023/07/03 08:53:37;;;;;;;10.40;5.40;;;22.70;54.70;;;;;;5036238;28;20512;-63
2023/07/03 08:56:10;;;;;;;9.50;5.57;;;22.70;54.40;;;;;;5036625;28;20048;-63
2023/07/03 08:58:36;;;;;;;9.05;5.28;;;22.70;54.20;;;;;;5033124;28;20033;-62
2023/07/03 09:01:20;;;;;;;10.98;5.60;;;22.70;54.50;;;;;;5035759;28;20044;-62
2023/07/03 09:04:07;;;;;;;8.20;4.95;;;22.70;54.30;;;;;;5034544;28;20049;-63
2023/07/03 09:06:43;;;;;;;11.13;5.20;;;22.80;54.10;;;;;;5034372;28;20041;-63
2023/07/03 09:09:25;;;;;;;9.85;5.28;;;22.80;53.90;;;;;;5034712;28;20045;-63
2023/07/03 09:12:17;;;;;;;10.07;5.28;;;22.90;54.40;;;;;;5031136;28;20520;-63
2023/07/03 09:14:51;;;;;;;9.10;4.78;;;22.90;53.90;;;;;;5036671;28;20122;-63
2023/07/03 09:17:18;;;;;;;9.00;4.95;;;23.00;54.00;;;;;;5036521;28;20038;-63
2023/07/03 09:19:47;;;;;;;9.23;5.18;;;23.00;54.00;;;;;;5034969;28;20029;-63
2023/07/03 09:22:34;;;;;;;7.90;5.03;;;23.10;53.30;;;;;;5035397;28;20513;-63
2023/07/03 09:25:04;;;;;;;9.20;4.68;;;23.10;51.60;;;;;;5037059;28;20508;-63
2023/07/03 09:27:30;;;;;;;7.78;4.32;;;23.20;52.40;;;;;;5038206;28;20038;-63
2023/07/03 09:30:04;;;;;;;7.70;4.60;;;23.20;52.20;;;;;;5036117;28;20033;-64
2023/07/03 09:32:31;;;;;;;8.90;4.65;;;23.20;52.00;;;;;;5035087;28;20059;-62
2023/07/03 09:35:12;;;;;;;8.20;4.80;;;23.20;52.30;;;;;;5036328;28;20037;-63
2023/07/03 09:37:59;;;;;;;11.90;5.15;;;23.20;51.60;;;;;;5033022;28;20075;-63
2023/07/03 09:40:37;;;;;;;8.38;4.72;;;23.20;52.30;;;;;;5035242;28;20559;-63
2023/07/03 09:43:10;;;;;;;10.27;4.80;;;23.20;52.20;;;;;;5033429;28;20283;-63
2023/07/03 09:45:39;;;;;;;8.48;4.82;;;23.20;52.60;;;;;;5033068;28;20501;-63
2023/07/03 09:48:31;;;;;;;9.60;4.97;;;23.20;52.10;;;;;;5033955;28;20459;-63
2023/07/03 09:50:57;;;;;;;11.77;5.07;;;23.30;51.90;;;;;;5032745;28;20045;-62
2023/07/03 09:53:26;;;;;;;9.48;4.85;;;23.30;52.30;;;;;;5035672;28;20045;-63
2023/07/03 09:55:54;;;;;;;10.70;4.65;;;23.30;52.20;;;;;;5035382;28;20057;-63
2023/07/03 09:58:23;;;;;;;11.88;5.40;;;23.40;52.60;;;;;;5033584;28;20035;-63
2023/07/03 10:00:51;;;;;;;9.70;4.50;;;23.40;52.60;;;;;;5034189;28;20039;-63
2023/07/03 10:03:28;;;;;;;9.32;4.90;;;23.50;52.70;;;;;;5035097;28;20041;-62
2023/07/03 10:05:56;;;;;;;7.40;4.82;;;23.60;52.40;;;;;;5034842;28;20167;-63
2023/07/03 10:08:25;;;;;;;10.40;5.18;;;23.60;52.40;;;;;;5037538;28;20063;-63
2023/07/03 10:10:54;;;;;;;11.50;5.10;;;23.70;52.00;;;;;;5030925;28;20052;-63
2023/07/03 10:13:30;;;;;;;9.95;5.03;;;23.80;52.00;;;;;;5037959;28;20037;-63
2023/07/03 10:15:57;;;;;;;9.60;4.75;;;23.90;52.00;;;;;;5037265;28;20029;-63
2023/07/03 10:18:32;;;;;;;9.25;4.57;;;24.00;51.80;;;;;;5034659;28;20408;-63
2023/07/03 10:21:01;;;;;;;7.68;5.20;;;24.10;51.60;;;;;;5032669;28;20045;-63
2023/07/03 10:23:31;;;;;;;13.07;4.50;;;24.30;51.00;;;;;;5035601;28;20045;-63
2023/07/03 10:26:21;;;;;;;11.43;4.93;;;24.30;51.40;;;;;;5032796;28;20056;-63
2023/07/03 10:29:09;;;;;;;7.60;4.60;;;24.40;50.70;;;;;;5034063;28;20511;-63
2023/07/03 10:32:03;;;;;;;12.55;4.90;;;24.50;50.90;;;;;;5034158;28;20050;-63
2023/07/03 10:34:39;;;;;;;8.88;4.75;;;24.60;51.10;;;;;;5034154;28;20127;-63
2023/07/03 10:37:07;;;;;;;7.45;4.55;;;24.60;50.50;;;;;;5034439;28;20044;-63
2023/07/03 10:39:49;;;;;;;8.35;4.50;;;24.70;50.60;;;;;;5032523;28;20277;-63
2023/07/03 10:42:29;;;;;;;10.43;4.97;;;24.70;49.50;;;;;;5032629;28;20045;-63
2023/07/03 10:45:03;;;;;;;9.80;4.70;;;24.80;50.00;;;;;;5033493;28;20038;-63
2023/07/03 10:47:32;;;;;;;9.00;4.43;;;24.90;49.50;;;;;;5033410;28;20060;-63
2023/07/03 10:49:58;;;;;;;12.10;5.18;;;25.00;49.10;;;;;;5033823;28;20076;-63
2023/07/03 10:52:52;;;;;;;9.80;4.68;;;25.00;49.00;;;;;;5033273;28;20026;-63
2023/07/03 10:55:37;;;;;;;8.45;4.60;;;25.10;48.70;;;;;;5035224;28;20044;-63
2023/07/03 10:58:11;;;;;;;;;;;25.00;48.00;;;;;;5034293;28;20029;-63
2023/07/03 11:01:04;;;;;;;6.70;4.10;;;25.00;48.90;;;;;;5031809;28;19916;-64
2023/07/03 11:03:58;;;;;;;8.73;4.57;;;25.00;48.00;;;;;;5035810;28;20528;-63
2023/07/03 11:06:25;;;;;;;8.93;4.90;;;25.00;47.90;;;;;;5038448;28;20455;-63
2023/07/03 11:09:02;;;;;;;7.00;4.10;;;24.90;48.70;;;;;;5037057;28;20034;-63
2023/07/03 11:11:27;;;;;;;7.75;4.45;;;25.00;48.80;;;;;;5035109;28;20060;-63
2023/07/03 11:14:08;;;;;;;11.65;4.47;;;24.90;48.80;;;;;;5037597;28;20119;-63
2023/07/03 11:16:42;;;;;;;7.88;4.70;;;24.80;48.80;;;;;;5034937;28;20033;-64
2023/07/03 11:19:17;;;;;;;7.38;4.78;;;24.70;48.70;;;;;;5038900;28;20033;-63
2023/07/03 11:22:01;;;;;;;13.60;4.20;;;24.80;48.90;;;;;;5035300;28;20131;-61
2023/07/03 11:25:00;;;;;;;7.35;4.60;;;24.70;49.20;;;;;;5039340;28;20451;-63
2023/07/03 11:27:31;;;;;;;10.65;4.60;;;24.70;49.00;;;;;;5036299;28;20042;-64
2023/07/03 11:29:58;;;;;;;8.25;4.65;;;24.70;49.10;;;;;;5038733;28;20396;-63
2023/07/03 11:32:24;;;;;;;10.50;4.95;;;24.70;49.40;;;;;;5040437;28;20493;-63
2023/07/03 11:34:51;;;;;;;11.27;4.60;;;24.70;49.60;;;;;;5039361;28;20413;-63
2023/07/03 11:37:35;;;;;;;10.27;4.88;;;24.70;49.60;;;;;;5039237;28;20029;-63
2023/07/03 11:40:26;;;;;;;9.20;4.78;;;24.70;49.70;;;;;;5036025;28;20074;-64
2023/07/03 11:43:22;;;;;;;8.00;4.50;;;24.70;49.80;;;;;;5025727;28;20030;-63
2023/07/03 11:46:16;;;;;;;7.78;4.68;;;24.80;50.10;;;;;;5034099;28;20041;-63
2023/07/03 11:48:46;;;;;;;9.68;4.93;;;24.90;49.60;;;;;;5035550;28;20043;-63
2023/07/03 11:51:29;;;;;;;10.98;4.57;;;25.00;49.60;;;;;;5038188;28;20415;-63
2023/07/03 11:53:57;;;;;;;10.77;4.63;;;25.10;49.00;;;;;;5038033;28;20501;-63
2023/07/03 11:56:39;;;;;;;10.75;5.15;;;25.10;48.90;;;;;;5038720;28;20091;-64
2023/07/03 11:59:10;;;;;;;10.70;4.75;;;25.20;49.00;;;;;;5037040;28;20029;-63
2023/07/03 12:01:36;;;;;;;7.93;4.90;;;25.20;48.60;;;;;;5035371;28;20045;-63
2023/07/03 12:04:07;;;;;;;6.78;4.15;;;25.20;48.40;;;;;;5037092;28;20072;-63
2023/07/03 12:06:39;;;;;;;8.50;4.93;;;25.20;48.20;;;;;;5037379;28;20116;-64
2023/07/03 12:09:25;;;;;;;8.85;4.50;;;25.20;48.10;;;;;;5037927;28;20029;-63
2023/07/03 12:12:00;;;;;;;8.10;4.13;;;25.20;48.30;;;;;;5031375;28;20571;-62
2023/07/03 12:14:46;;;;;;;;;;;25.20;47.80;;;;;;5036429;28;20029;-63
2023/07/03 12:17:26;;;;;;;9.05;4.38;;;25.30;49.00;;;;;;5035444;28;19914;-63
2023/07/03 12:19:56;;;;;;;9.30;4.22;;;25.20;48.00;;;;;;5037007;28;20041;-63
2023/07/03 12:22:25;;;;;;;7.18;4.28;;;25.30;47.70;;;;;;5034101;28;20075;-63
2023/07/03 12:25:08;;;;;;;9.82;4.28;;;25.20;47.70;;;;;;5035092;28;20083;-63
2023/07/03 12:27:36;;;;;;;6.70;4.28;;;25.20;47.20;;;;;;5036766;28;20488;-63
2023/07/03 12:30:03;;;;;;;6.95;4.13;;;25.10;48.00;;;;;;5035219;28;20480;-63
2023/07/03 12:32:31;;;;;;;6.32;3.95;;;25.10;47.90;;;;;;5036710;28;20037;-63
2023/07/03 12:35:12;;;;;;;8.60;3.95;;;25.10;47.40;;;;;;5037255;28;20036;-64
2023/07/03 12:38:04;;;;;;;8.25;4.07;;;25.10;47.00;;;;;;5036559;28;20119;-63
2023/07/03 12:40:29;;;;;;;10.02;4.10;;;25.10;47.80;;;;;;5037366;28;20088;-63
2023/07/03 12:42:56;;;;;;;6.90;3.97;;;25.00;47.80;;;;;;5036302;28;20040;-63
2023/07/03 12:45:23;;;;;;;5.00;3.53;;;25.00;47.50;;;;;;5033689;28;20512;-63
2023/07/03 12:48:17;;;;;;;8.00;3.90;;;25.00;47.30;;;;;;5035034;28;20033;-63
2023/07/03 12:50:55;;;;;;;7.72;3.80;;;25.10;46.80;;;;;;5035748;28;20045;-63